createdAt,value
2023-05-13T00:08:07.493Z,84.31
2023-05-13T00:18:10.543Z,84.71
2023-05-13T00:28:15.200Z,84.80
2023-05-13T00:38:18.085Z,83.87
2023-05-13T00:48:22.924Z,84.63
2023-05-13T00:58:25.962Z,84.38
2023-05-13T01:08:48.646Z,83.65
2023-05-13T01:18:57.860Z,83.63
2023-05-13T01:29:02.802Z,84.16
2023-05-13T01:39:06.626Z,84.24
2023-05-13T01:49:11.172Z,84.64
2023-05-13T01:59:14.302Z,85.51
2023-05-13T02:09:18.789Z,85.87
2023-05-13T02:19:21.845Z,86.75
2023-05-13T02:29:26.309Z,87.33
2023-05-13T02:39:29.931Z,89.06
2023-05-13T02:49:36.381Z,89.42
2023-05-13T02:59:39.670Z,90.00
2023-05-13T03:09:44.088Z,89.85
2023-05-13T03:19:47.104Z,90.78
2023-05-13T03:29:52.022Z,91.08
2023-05-13T03:39:55.850Z,91.99
2023-05-13T03:50:00.607Z,92.08
2023-05-13T04:00:10.072Z,93.08
2023-05-13T04:10:19.099Z,93.23
2023-05-13T04:20:22.528Z,94.16
2023-05-13T04:30:27.160Z,94.56
2023-05-13T04:40:30.235Z,94.79
2023-05-13T04:50:38.606Z,94.55
2023-05-13T05:00:43.103Z,94.51
2023-05-13T05:10:47.609Z,93.98
2023-05-13T05:20:51.649Z,93.85
2023-05-13T05:30:58.581Z,93.21
2023-05-13T05:41:04.218Z,92.10
2023-05-13T05:51:09.346Z,90.93
2023-05-13T06:01:12.964Z,90.90
2023-05-13T06:11:17.752Z,90.21
2023-05-13T06:21:21.084Z,90.66
2023-05-13T06:31:27.191Z,91.05
2023-05-13T06:41:29.987Z,89.41
2023-05-13T06:51:41.229Z,89.32
2023-05-13T07:01:44.278Z,87.52
2023-05-13T07:11:48.688Z,87.19
2023-05-13T07:21:51.624Z,87.52
2023-05-13T07:31:55.906Z,86.46
2023-05-13T07:41:59.918Z,85.09
2023-05-13T07:52:04.548Z,80.94
2023-05-13T08:02:08.393Z,76.02
2023-05-13T08:12:12.689Z,76.00
2023-05-13T08:22:15.728Z,74.69
2023-05-13T08:32:20.222Z,73.37
2023-05-13T08:42:24.323Z,74.15
2023-05-13T08:52:29.173Z,71.64
2023-05-13T09:02:32.219Z,67.64
2023-05-13T09:12:47.125Z,68.94
2023-05-13T09:22:52.112Z,67.66
2023-05-13T09:33:14.512Z,66.71
2023-05-13T09:43:18.086Z,69.32
2023-05-13T09:53:22.490Z,66.75
2023-05-13T10:03:26.064Z,62.69
2023-05-13T10:13:33.097Z,64.01
2023-05-13T10:23:36.867Z,60.75
2023-05-13T10:33:41.153Z,60.52
2023-05-13T10:43:44.204Z,58.46
2023-05-13T10:53:51.244Z,57.21
2023-05-13T11:03:55.879Z,51.41
2023-05-13T11:14:09.508Z,49.67
2023-05-13T11:24:18.127Z,47.52
2023-05-13T11:34:22.412Z,46.03
2023-05-13T11:44:26.343Z,44.71
2023-05-13T11:54:31.018Z,41.19
2023-05-13T12:04:34.242Z,39.67
2023-05-13T12:14:39.195Z,34.39
2023-05-13T12:24:42.204Z,36.26
2023-05-13T12:34:50.784Z,35.66
2023-05-13T12:44:53.793Z,33.36
2023-05-13T12:54:58.099Z,34.51
2023-05-13T13:05:01.009Z,34.32
2023-05-13T13:15:05.892Z,33.78
2023-05-13T13:25:09.501Z,35.56
2023-05-13T13:35:13.786Z,34.13
2023-05-13T13:45:16.707Z,33.89
2023-05-13T13:55:21.533Z,33.23
2023-05-13T14:05:24.628Z,33.57
2023-05-13T14:15:30.826Z,31.48
2023-05-13T14:25:33.823Z,34.15
2023-05-13T14:35:38.131Z,33.14
2023-05-13T14:45:41.145Z,32.01
2023-05-13T14:55:45.808Z,32.15
2023-05-13T15:05:50.287Z,32.47
2023-05-13T15:15:54.866Z,31.74
2023-05-13T15:25:58.208Z,32.38
2023-05-13T15:36:02.508Z,31.43
2023-05-13T15:46:06.029Z,33.00
2023-05-13T15:56:10.549Z,32.71
2023-05-13T16:06:13.540Z,35.81
2023-05-13T16:16:18.002Z,35.54
2023-05-13T16:26:21.492Z,36.58
2023-05-13T16:36:26.668Z,38.02
2023-05-13T16:46:30.233Z,37.94
2023-05-13T16:56:34.725Z,36.65
2023-05-13T17:06:37.631Z,37.74
2023-05-13T17:16:42.541Z,38.42
2023-05-13T17:26:45.619Z,39.50
2023-05-13T17:36:50.382Z,40.04
2023-05-13T17:46:53.679Z,40.46
2023-05-13T17:56:58.185Z,41.84
2023-05-13T18:07:01.218Z,40.48
2023-05-13T18:17:06.111Z,42.29
2023-05-13T18:27:09.448Z,43.79
2023-05-13T18:37:14.985Z,44.36
2023-05-13T18:47:18.052Z,45.21
2023-05-13T18:57:23.856Z,46.23
2023-05-13T19:07:27.201Z,50.34
2023-05-13T19:17:31.694Z,53.41
2023-05-13T19:27:34.860Z,54.74
2023-05-13T19:37:39.124Z,60.18
2023-05-13T19:47:42.237Z,61.03
2023-05-13T19:57:47.546Z,61.57
2023-05-13T20:07:50.593Z,64.10
2023-05-13T20:17:54.965Z,66.63
2023-05-13T20:27:58.024Z,67.56
2023-05-13T20:38:02.419Z,67.94
2023-05-13T20:48:06.058Z,66.39
2023-05-13T20:58:12.132Z,68.92
2023-05-13T21:08:15.189Z,71.40
2023-05-13T21:18:19.450Z,73.30
2023-05-13T21:28:23.787Z,76.00
2023-05-13T21:38:28.553Z,78.26
2023-05-13T21:48:31.558Z,79.14
2023-05-13T21:58:35.894Z,80.46
2023-05-13T22:08:38.893Z,80.53
2023-05-13T22:18:44.088Z,81.94
2023-05-13T22:28:48.547Z,81.74
2023-05-13T22:38:52.868Z,80.42
2023-05-13T22:48:55.842Z,79.87
2023-05-13T22:59:00.109Z,79.63
2023-05-13T23:09:03.087Z,80.47
2023-05-13T23:19:07.452Z,80.84
2023-05-13T23:29:10.533Z,82.24
2023-05-13T23:39:14.949Z,82.51
2023-05-13T23:49:18.227Z,84.28
2023-05-13T23:59:23.776Z,83.67
